Time;durP1;ratioP1;P1;durP2;ratioP2;P2;SDS_P1;SDS_P2;PMS_P1;PMS_P2;Temp;Humidity;BMP_temperature;BMP_pressure;BME280_temperature;BME280_humidity;BME280_pressure;Samples;Min_cycle;Max_cycle;Signal;HPM_P1;HPM_P2
2022/09/05 00:02:00;;;;;;;7.07;4.57;;;;;;;12.28;99.59;101820.63;5066530;28;20040;-79
2022/09/05 00:04:51;;;;;;;5.50;4.22;;;;;;;12.15;100.00;101821.63;5060089;28;20044;-79
2022/09/05 00:07:30;;;;;;;5.20;4.20;;;;;;;12.22;100.00;101817.16;5067845;28;20033;-79
2022/09/05 00:10:24;;;;;;;6.35;3.92;;;;;;;12.16;100.00;101815.44;5052073;28;20501;-79
2022/09/05 00:12:55;;;;;;;6.03;4.10;;;;;;;12.18;99.40;101821.59;5062953;28;20071;-79
2022/09/05 00:16:00;;;;;;;5.35;4.15;;;;;;;12.34;95.75;101815.25;5075968;28;20047;-79
2022/09/05 00:18:43;;;;;;;6.95;4.60;;;;;;;12.15;97.28;101818.09;5072215;28;20029;-79
2022/09/05 00:21:55;;;;;;;5.35;3.80;;;;;;;12.09;98.90;101811.94;5076087;28;20102;-79
2022/09/05 00:24:51;;;;;;;5.32;3.90;;;;;;;12.16;97.98;101820.72;5062908;28;20048;-79
2022/09/05 00:27:57;;;;;;;5.00;4.00;;;;;;;11.99;100.00;101815.56;5094990;28;20045;-79
2022/09/05 00:30:43;;;;;;;6.18;3.92;;;;;;;12.00;99.62;101816.44;5042260;28;20045;-79
2022/09/05 00:34:08;;;;;;;5.00;3.78;;;;;;;12.08;96.88;101819.91;5044856;28;20427;-79
2022/09/05 00:36:38;;;;;;;3.80;3.40;;;;;;;12.06;98.50;101811.09;5043290;28;20043;-79
2022/09/05 00:39:11;;;;;;;6.90;4.35;;;;;;;12.07;98.17;101819.03;5078191;28;20043;-79
2022/09/05 00:41:38;;;;;;;4.88;3.80;;;;;;;12.11;98.52;101814.59;5056634;22;20132;-81
2022/09/05 00:44:05;;;;;;;4.50;3.40;;;;;;;12.13;97.72;101811.94;4997556;28;20050;-83
2022/09/05 00:46:36;;;;;;;4.00;3.58;;;;;;;12.17;96.48;101825.13;5012554;28;20402;-83
2022/09/05 00:49:30;;;;;;;4.43;3.63;;;;;;;12.02;98.54;101822.59;5013969;28;20065;-82
2022/09/05 00:52:00;;;;;;;5.07;3.95;;;;;;;11.91;99.36;101822.69;5013073;28;20133;-81
2022/09/05 00:55:01;;;;;;;5.20;4.32;;;;;;;12.08;97.75;101822.56;5013867;28;20053;-81
2022/09/05 00:57:40;;;;;;;4.70;3.70;;;;;;;12.03;96.80;101827.03;5013506;28;20049;-81
2022/09/05 01:00:14;;;;;;;4.63;3.13;;;;;;;12.00;98.25;101824.38;5029354;28;20723;-81
2022/09/05 01:03:08;;;;;;;5.07;3.55;;;;;;;11.97;98.25;101821.78;4993779;28;20452;-81
2022/09/05 01:06:13;;;;;;;3.60;3.28;;;;;;;11.86;97.50;101831.56;5012916;28;20422;-81
2022/09/05 01:09:05;;;;;;;4.22;3.50;;;;;;;11.82;98.90;101834.22;5029486;28;20044;-82
2022/09/05 01:12:07;;;;;;;3.85;3.10;;;;;;;11.82;98.36;101841.28;5024272;28;20056;-82
2022/09/05 01:14:34;;;;;;;4.68;2.95;;;;;;;11.87;97.54;101839.50;5026163;28;20041;-81
2022/09/05 01:17:19;;;;;;;4.15;3.05;;;;;;;11.70;99.22;101839.59;5011565;28;20121;-81
2022/09/05 01:20:13;;;;;;;3.92;2.80;;;;;;;11.62;100.00;101843.16;5009129;28;19922;-81
2022/09/05 01:23:17;;;;;;;3.88;3.30;;;;;;;11.69;99.94;101839.59;5010527;28;20041;-83
2022/09/05 01:26:20;;;;;;;4.30;3.28;;;;;;;11.90;98.69;101843.88;4997838;28;20049;-84
2022/09/05 01:28:59;;;;;;;4.10;3.15;;;;;;;11.59;100.00;101843.16;5030149;28;20383;-83
2022/09/05 01:32:01;;;;;;;5.18;3.75;;;;;;;11.73;100.00;101842.19;4995296;28;20454;-83
2022/09/05 01:34:55;;;;;;;4.40;3.30;;;;;;;11.69;100.00;101848.41;5010634;28;20037;-83
2022/09/05 01:37:28;;;;;;;4.63;3.30;;;;;;;11.61;100.00;101846.72;4995946;28;20136;-84
2022/09/05 01:40:18;;;;;;;5.30;3.33;;;;;;;11.59;98.94;101848.47;4998800;28;20549;-83
2022/09/05 01:43:05;;;;;;;12.02;4.38;;;;;;;11.53;100.00;101850.28;4991136;28;20133;-83
2022/09/05 01:45:59;;;;;;;9.10;4.60;;;;;;;11.47;100.00;101846.78;4988757;28;20137;-84
2022/09/05 01:48:41;;;;;;;6.47;3.88;;;;;;;11.47;100.00;101844.13;4993479;28;20487;-83
2022/09/05 01:51:34;;;;;;;7.90;3.67;;;;;;;11.53;100.00;101844.09;4993827;28;20045;-83
2022/09/05 01:54:14;;;;;;;5.30;3.55;;;;;;;11.48;100.00;101848.53;4994443;28;20062;-84
2022/09/05 01:57:01;;;;;;;5.70;3.45;;;;;;;11.52;100.00;101842.34;5014577;28;20042;-83
2022/09/05 01:59:38;;;;;;;7.10;3.63;;;;;;;11.47;100.00;101847.66;5013233;28;20037;-83
2022/09/05 02:02:22;;;;;;;3.87;2.90;;;;;;;11.48;100.00;101846.75;5011097;28;20136;-83
2022/09/05 02:05:10;;;;;;;4.95;2.70;;;;;;;11.43;99.67;101847.66;4988593;28;20295;-84
2022/09/05 02:08:03;;;;;;;3.83;3.08;;;;;;;11.35;100.00;101849.47;5011749;28;20532;-83
2022/09/05 02:10:38;;;;;;;3.83;2.83;;;;;;;11.26;100.00;101850.38;5003126;28;20057;-84
2022/09/05 02:13:23;;;;;;;3.33;2.70;;;;;;;11.31;100.00;101847.72;4993720;28;20515;-84
2022/09/05 02:15:52;;;;;;;;;;;;;;;11.25;99.60;101852.16;5011991;28;20049;-84
2022/09/05 02:18:51;;;;;;;4.03;2.42;;;;;;;11.20;100.00;101856.59;4998372;28;19963;-83
2022/09/05 02:21:34;;;;;;;4.72;2.80;;;;;;;11.13;100.00;101856.63;5008488;28;20049;-82
2022/09/05 02:24:44;;;;;;;3.92;3.03;;;;;;;11.09;100.00;101852.22;5006222;28;20038;-83
2022/09/05 02:27:21;;;;;;;4.22;2.90;;;;;;;11.07;100.00;101854.88;5008111;28;20057;-83
2022/09/05 02:30:16;;;;;;;5.93;2.92;;;;;;;11.08;100.00;101861.03;5015177;28;20091;-83
2022/09/05 02:32:50;;;;;;;3.15;2.78;;;;;;;11.02;100.00;101864.59;5012843;28;20095;-83
2022/09/05 02:35:22;;;;;;;;;;;;;;;10.95;100.00;101857.56;4997490;28;20045;-83
2022/09/05 02:37:50;;;;;;;5.63;2.47;;;;;;;11.09;100.00;101857.50;5026541;28;19958;-84
2022/09/05 02:40:58;;;;;;;4.38;2.85;;;;;;;10.99;100.00;101854.88;5013728;28;20465;-83
2022/09/05 02:43:56;;;;;;;4.25;3.22;;;;;;;10.87;100.00;101862.00;5003482;28;20045;-83
2022/09/05 02:46:59;;;;;;;2.95;2.65;;;;;;;10.85;100.00;101855.84;5009740;28;20091;-83
2022/09/05 02:49:42;;;;;;;3.65;2.63;;;;;;;10.86;100.00;101860.25;4995547;28;20038;-83
2022/09/05 02:52:31;;;;;;;5.35;2.85;;;;;;;10.82;100.00;101866.41;4984859;28;20042;-83
2022/09/05 02:55:25;;;;;;;3.55;2.70;;;;;;;10.80;100.00;101865.53;5013035;28;20092;-83
2022/09/05 02:58:20;;;;;;;4.60;3.00;;;;;;;10.84;100.00;101867.28;5029628;28;20398;-83
2022/09/05 03:01:03;;;;;;;2.88;2.15;;;;;;;10.86;100.00;101865.53;5026477;28;20072;-83
2022/09/05 03:03:36;;;;;;;4.15;2.42;;;;;;;10.67;100.00;101862.88;5013999;28;20449;-83
2022/09/05 03:06:26;;;;;;;4.15;2.70;;;;;;;10.65;100.00;101859.38;5015479;28;20052;-83
2022/09/05 03:09:09;;;;;;;3.67;2.58;;;;;;;10.70;100.00;101864.66;5037000;28;21192;-83
2022/09/05 03:12:14;;;;;;;3.72;2.47;;;;;;;10.62;100.00;101867.31;5030644;28;20056;-83
2022/09/05 03:15:13;;;;;;;3.92;2.60;;;;;;;10.52;100.00;101856.78;5010654;28;20037;-83
2022/09/05 03:18:11;;;;;;;4.32;2.50;;;;;;;10.56;100.00;101862.03;5015041;28;20045;-83
2022/09/05 03:21:14;;;;;;;2.50;2.17;;;;;;;10.61;100.00;101862.03;5031277;28;20056;-83
2022/09/05 03:23:58;;;;;;;3.88;2.45;;;;;;;10.60;100.00;101860.28;5012763;28;20076;-82
2022/09/05 03:26:42;;;;;;;4.30;2.60;;;;;;;10.60;100.00;101866.44;4998796;28;20607;-83
2022/09/05 03:29:24;;;;;;;4.32;2.35;;;;;;;10.54;100.00;101862.94;5009917;28;20049;-83
2022/09/05 03:32:09;;;;;;;3.90;2.50;;;;;;;10.51;100.00;101863.81;5008350;28;20049;-82
2022/09/05 03:34:52;;;;;;;4.57;2.75;;;;;;;10.58;100.00;101862.91;5024501;28;20520;-83
2022/09/05 03:37:58;;;;;;;3.67;2.60;;;;;;;10.57;100.00;101860.28;5029699;28;20045;-83
2022/09/05 03:40:45;;;;;;;3.28;2.42;;;;;;;10.58;100.00;101857.63;5011890;28;20045;-84
2022/09/05 03:43:33;;;;;;;3.60;3.15;;;;;;;10.65;100.00;101867.31;4989832;28;20046;-83
2022/09/05 03:46:07;;;;;;;3.45;2.30;;;;;;;10.41;100.00;101857.63;5023049;28;20052;-83
2022/09/05 03:48:42;;;;;;;4.00;2.40;;;;;;;10.48;100.00;101861.16;5015378;28;20037;-83
2022/09/05 03:51:23;;;;;;;3.30;2.28;;;;;;;10.39;100.00;101848.84;5004023;28;20303;-82
2022/09/05 03:54:27;;;;;;;4.35;2.33;;;;;;;10.55;100.00;101848.84;4998994;28;20517;-82
2022/09/05 03:57:32;;;;;;;4.53;2.60;;;;;;;10.62;100.00;101845.31;5000659;28;20042;-82
2022/09/05 04:00:20;;;;;;;3.13;2.50;;;;;;;10.50;100.00;101845.31;5016109;28;20128;-83
2022/09/05 04:03:05;;;;;;;4.05;2.30;;;;;;;10.69;100.00;101845.28;5010913;28;20045;-82
2022/09/05 04:06:06;;;;;;;3.25;1.95;;;;;;;10.65;100.00;101842.66;5001562;28;20049;-83
2022/09/05 04:09:02;;;;;;;3.17;2.10;;;;;;;10.67;100.00;101849.69;5032404;28;20052;-83
2022/09/05 04:11:34;;;;;;;3.83;2.65;;;;;;;10.62;100.00;101854.09;4997481;28;20437;-82
2022/09/05 04:14:05;;;;;;;4.40;2.30;;;;;;;10.66;100.00;101852.31;5029410;28;20487;-82
2022/09/05 04:16:43;;;;;;;4.45;2.47;;;;;;;10.68;100.00;101842.66;5012722;28;20038;-83
2022/09/05 04:19:17;;;;;;;2.55;2.05;;;;;;;10.57;100.00;101850.59;5015619;28;20041;-82
2022/09/05 04:21:54;;;;;;;3.65;2.58;;;;;;;10.61;100.00;101848.84;5013449;28;20433;-83
2022/09/05 04:24:35;;;;;;;3.95;2.63;;;;;;;10.61;100.00;101846.19;5003413;28;20512;-82
2022/09/05 04:27:43;;;;;;;4.85;2.50;;;;;;;10.59;100.00;101854.09;5014905;28;20060;-82
2022/09/05 04:30:24;;;;;;;3.73;2.13;;;;;;;10.73;98.95;101855.84;5008577;28;20074;-83
2022/09/05 04:33:22;;;;;;;3.85;2.38;;;;;;;10.85;98.05;101855.84;5006756;28;20038;-83
2022/09/05 04:36:27;;;;;;;4.00;2.53;;;;;;;10.75;100.00;101867.28;5014477;28;20398;-83
2022/09/05 04:39:08;;;;;;;3.63;2.35;;;;;;;10.81;97.20;101864.66;5010989;28;20120;-83
2022/09/05 04:41:41;;;;;;;4.75;2.42;;;;;;;10.84;97.32;101865.50;5024892;28;20437;-83
2022/09/05 04:44:13;;;;;;;2.55;1.95;;;;;;;10.85;97.15;101869.06;5006894;28;20037;-83
2022/09/05 04:46:53;;;;;;;3.80;2.30;;;;;;;10.94;93.85;101866.38;4993606;28;20057;-83
2022/09/05 04:49:29;;;;;;;4.65;2.13;;;;;;;10.98;93.86;101871.66;5003561;28;20055;-82
2022/09/05 04:52:20;;;;;;;4.03;2.35;;;;;;;10.90;94.71;101877.84;4996932;28;20037;-83
2022/09/05 04:55:13;;;;;;;4.43;2.22;;;;;;;11.03;95.58;101879.59;5029018;28;20041;-82
2022/09/05 04:58:00;;;;;;;2.90;1.88;;;;;;;11.12;94.14;101884.84;5005568;28;20042;-83
2022/09/05 05:00:46;;;;;;;2.92;2.20;;;;;;;11.02;95.20;101877.81;5007978;28;20417;-83
2022/09/05 05:03:33;;;;;;;4.13;2.10;;;;;;;11.05;94.98;101877.81;4995993;28;20043;-83
2022/09/05 05:06:33;;;;;;;2.72;2.13;;;;;;;11.19;95.57;101881.28;5011355;28;20045;-83
2022/09/05 05:09:49;;;;;;;5.20;2.10;;;;;;;11.20;95.79;101876.88;5029529;28;20124;-83
2022/09/05 05:13:00;;;;;;;4.53;2.67;;;;;;;11.20;93.45;101884.81;4999174;28;20058;-82
2022/09/05 05:15:53;;;;;;;3.92;2.20;;;;;;;11.25;94.55;101881.25;5027853;28;20786;-83
2022/09/05 05:18:43;;;;;;;2.67;2.00;;;;;;;11.30;95.60;101881.25;4998627;28;20045;-82
2022/09/05 05:21:28;;;;;;;4.32;1.90;;;;;;;11.25;94.52;101883.88;5019589;28;20494;-83
2022/09/05 05:24:06;;;;;;;3.90;1.95;;;;;;;11.28;93.76;101875.09;5014298;28;20045;-82
2022/09/05 05:27:12;;;;;;;4.25;1.95;;;;;;;11.37;91.83;101890.03;4992139;28;20053;-82
2022/09/05 05:29:44;;;;;;;3.85;2.47;;;;;;;11.40;94.12;101887.38;5009394;28;20050;-82
2022/09/05 05:32:26;;;;;;;3.10;1.83;;;;;;;11.51;93.35;101894.38;5010807;28;20053;-83
2022/09/05 05:35:13;;;;;;;4.13;1.90;;;;;;;11.50;92.98;101897.03;4982265;28;20069;-84
2022/09/05 05:37:44;;;;;;;3.55;2.35;;;;;;;11.61;91.20;101907.59;4992564;28;20581;-84
2022/09/05 05:40:14;;;;;;;2.58;1.85;;;;;;;11.75;94.68;101903.94;4979518;28;20041;-84
2022/09/05 05:42:41;;;;;;;4.03;2.38;;;;;;;11.64;91.34;101899.63;5012036;28;20041;-84
2022/09/05 05:45:26;;;;;;;3.75;2.10;;;;;;;11.73;92.30;101900.44;5013271;28;20049;-84
2022/09/05 05:47:58;;;;;;;3.38;2.03;;;;;;;11.75;92.96;101905.72;5042141;28;20072;-83
2022/09/05 05:51:05;;;;;;;3.40;1.98;;;;;;;11.84;91.99;101905.69;4989884;28;20507;-84
2022/09/05 05:53:59;;;;;;;2.65;1.83;;;;;;;11.93;86.71;101908.28;5013582;28;20516;-84
2022/09/05 05:56:45;;;;;;;2.20;1.63;;;;;;;11.84;87.55;101911.88;5022373;28;20033;-84
2022/09/05 05:59:26;;;;;;;3.40;2.00;;;;;;;11.88;91.66;101910.09;5007064;28;20041;-84
2022/09/05 06:02:18;;;;;;;3.95;1.92;;;;;;;11.88;92.08;101911.88;5021375;28;20046;-84
2022/09/05 06:04:54;;;;;;;3.80;2.20;;;;;;;12.03;93.06;101909.16;5009424;28;20107;-84
2022/09/05 06:07:54;;;;;;;4.35;2.05;;;;;;;12.01;93.65;101906.47;5024235;28;20491;-84
2022/09/05 06:11:29;;;;;;;3.10;1.95;;;;;;;12.11;90.71;101909.97;5018828;28;20439;-83
2022/09/05 06:14:37;;;;;;;4.80;2.00;;;;;;;12.40;93.49;101910.63;5015680;28;20048;-84
2022/09/05 06:17:45;;;;;;;3.33;2.00;;;;;;;12.49;91.57;101908.78;5003385;28;20048;-83
2022/09/05 06:20:21;;;;;;;5.00;1.98;;;;;;;12.65;84.99;101911.28;5005200;28;20125;-84
2022/09/05 06:23:26;;;;;;;3.40;1.90;;;;;;;13.26;82.23;101908.94;5029576;28;20484;-84
2022/09/05 06:26:36;;;;;;;4.45;2.00;;;;;;;13.66;80.09;101919.94;5001269;28;20037;-84
2022/09/05 06:29:16;;;;;;;1.92;1.70;;;;;;;14.21;79.67;101913.81;5023374;28;20034;-83
2022/09/05 06:32:09;;;;;;;2.35;1.80;;;;;;;14.39;78.00;101920.66;5004921;28;20043;-84
2022/09/05 06:34:58;;;;;;;3.03;2.17;;;;;;;14.24;72.56;101919.09;5007759;28;20049;-84
2022/09/05 06:37:53;;;;;;;2.33;1.75;;;;;;;14.24;71.33;101922.66;4993126;28;20392;-84
2022/09/05 06:40:36;;;;;;;3.42;2.30;;;;;;;14.31;75.04;101916.34;4999401;28;20125;-84
2022/09/05 06:43:24;;;;;;;4.85;1.80;;;;;;;14.34;72.07;101915.41;4996801;28;20046;-83
2022/09/05 06:46:17;;;;;;;3.80;1.98;;;;;;;14.34;70.01;101915.41;5057010;23;20055;-82
2022/09/05 06:49:14;;;;;;;2.88;2.15;;;;;;;14.34;72.53;101907.41;5001807;28;20057;-83
2022/09/05 06:52:22;;;;;;;1.95;1.70;;;;;;;14.43;75.56;101909.06;4992055;28;20121;-82
2022/09/05 06:55:30;;;;;;;3.88;1.75;;;;;;;14.53;71.44;101911.56;4993679;28;20046;-82
2022/09/05 06:58:26;;;;;;;2.72;1.75;;;;;;;14.99;72.99;101905.44;4978972;28;20046;-82
2022/09/05 07:00:55;;;;;;;2.25;1.52;;;;;;;15.57;72.13;101909.59;4959839;28;20046;-82
2022/09/05 07:03:45;;;;;;;2.97;1.98;;;;;;;15.89;70.29;101903.59;4975885;28;20042;-83
2022/09/05 07:06:55;;;;;;;4.97;2.40;;;;;;;16.38;64.51;101904.19;4984728;28;20050;-82
2022/09/05 07:09:49;;;;;;;3.92;2.10;;;;;;;16.57;65.77;101908.19;4992656;28;20470;-83
2022/09/05 07:12:25;;;;;;;3.10;2.00;;;;;;;16.52;62.93;101913.63;4991533;28;20046;-83
2022/09/05 07:15:31;;;;;;;2.40;2.05;;;;;;;16.14;63.10;101916.31;4976940;28;20048;-82
2022/09/05 07:18:25;;;;;;;3.33;1.90;;;;;;;16.52;64.12;101910.06;4976397;28;20068;-82
2022/09/05 07:20:56;;;;;;;9.02;2.95;;;;;;;16.69;64.88;101915.00;4975531;28;20529;-83
2022/09/05 07:23:47;;;;;;;4.32;2.28;;;;;;;16.78;62.61;101917.44;4979050;28;20404;-83
2022/09/05 07:26:35;;;;;;;5.10;2.40;;;;;;;16.89;62.30;101918.91;4986068;28;20519;-82
2022/09/05 07:29:31;;;;;;;4.18;2.25;;;;;;;16.87;62.83;101925.19;4987251;28;20034;-82
2022/09/05 07:32:00;;;;;;;3.90;2.20;;;;;;;16.91;64.58;101926.03;4973310;28;20065;-80
2022/09/05 07:34:28;;;;;;;2.65;1.90;;;;;;;16.78;63.94;101930.78;4971940;28;20046;-83
2022/09/05 07:36:57;;;;;;;2.25;2.05;;;;;;;16.76;64.70;101932.63;4987457;28;20058;-83
2022/09/05 07:39:50;;;;;;;4.40;2.40;;;;;;;16.94;63.16;101934.81;4993082;28;20517;-83
2022/09/05 07:42:25;;;;;;;3.97;2.45;;;;;;;16.96;64.91;101938.31;4974580;28;20038;-81
2022/09/05 07:44:55;;;;;;;4.07;2.50;;;;;;;16.77;65.15;101939.72;4959469;28;20046;-83
2022/09/05 07:47:31;;;;;;;3.05;2.17;;;;;;;16.87;65.45;101933.22;4975729;28;20408;-82
2022/09/05 07:50:03;;;;;;;3.75;2.28;;;;;;;16.59;62.67;101944.56;4993239;28;20121;-83
2022/09/05 07:52:53;;;;;;;4.43;2.22;;;;;;;16.71;65.85;101943.41;5008166;28;20050;-83
2022/09/05 07:55:41;;;;;;;3.88;1.92;;;;;;;16.79;64.54;101935.19;5004508;28;20073;-83
2022/09/05 07:58:40;;;;;;;3.03;2.40;;;;;;;16.90;66.14;101925.16;4992338;28;20089;-83
2022/09/05 08:01:11;;;;;;;5.22;2.08;;;;;;;17.17;63.94;101942.22;4984068;28;20061;-84
2022/09/05 08:03:40;;;;;;;2.95;2.03;;;;;;;17.02;61.70;101935.47;4979849;28;20043;-81
2022/09/05 08:06:13;;;;;;;4.22;2.20;;;;;;;16.83;65.50;101931.56;4976786;28;20038;-82
2022/09/05 08:09:02;;;;;;;3.15;2.00;;;;;;;17.28;65.54;101932.09;4981753;28;20038;-80
2022/09/05 08:11:55;;;;;;;3.67;2.17;;;;;;;17.42;63.46;101934.38;4978922;28;20054;-82
2022/09/05 08:14:40;;;;;;;5.45;2.40;;;;;;;17.55;62.79;101927.75;4975859;28;20034;-81
2022/09/05 08:17:19;;;;;;;4.53;2.35;;;;;;;17.63;61.74;101936.41;4991014;28;20436;-83
2022/09/05 08:20:14;;;;;;;3.42;2.08;;;;;;;17.78;61.44;101940.47;4976168;28;20070;-82
2022/09/05 08:22:47;;;;;;;2.78;2.45;;;;;;;17.71;59.89;101938.91;4978237;28;20126;-80
2022/09/05 08:25:24;;;;;;;3.83;2.60;;;;;;;17.69;61.49;101938.03;4976874;28;20491;-82
2022/09/05 08:28:18;;;;;;;3.85;2.13;;;;;;;17.96;63.15;101939.91;4993814;28;20042;-82
2022/09/05 08:30:52;;;;;;;3.00;2.47;;;;;;;18.13;64.48;101936.72;4994297;28;20479;-82
2022/09/05 08:33:23;;;;;;;4.78;2.40;;;;;;;18.21;60.23;101936.47;4996179;28;20109;-81
2022/09/05 08:35:55;;;;;;;4.22;2.33;;;;;;;18.14;61.39;101926.88;5008769;28;20073;-82
2022/09/05 08:38:31;;;;;;;2.78;2.53;;;;;;;18.05;59.11;101932.53;4963532;28;20050;-82
2022/09/05 08:41:22;;;;;;;3.53;2.30;;;;;;;18.14;60.21;101924.19;4977590;28;20030;-82
2022/09/05 08:44:15;;;;;;;3.08;2.60;;;;;;;18.43;62.07;101921.47;4979854;28;20046;-82
2022/09/05 08:47:26;;;;;;;4.00;2.63;;;;;;;18.86;60.76;101919.19;4981233;28;20104;-83
2022/09/05 08:50:12;;;;;;;3.80;2.50;;;;;;;19.09;60.22;101914.75;4980999;28;20043;-80
2022/09/05 08:53:01;;;;;;;2.95;2.10;;;;;;;19.20;58.38;101902.78;4955293;28;20478;-79
2022/09/05 08:55:37;;;;;;;3.95;2.53;;;;;;;19.49;57.15;101896.31;4973647;28;20126;-80
2022/09/05 08:58:22;;;;;;;2.92;2.55;;;;;;;19.80;57.79;101904.97;4993132;28;20509;-81
2022/09/05 09:01:06;;;;;;;3.55;2.20;;;;;;;20.00;56.97;101893.44;5003851;28;20066;-79
2022/09/05 09:04:28;;;;;;;3.80;2.28;;;;;;;20.18;53.68;101892.72;4985720;28;20045;-80
2022/09/05 09:07:37;;;;;;;2.83;2.28;;;;;;;20.33;53.47;101885.81;4985958;28;20593;-80
2022/09/05 09:10:28;;;;;;;4.20;2.85;;;;;;;20.20;52.23;101887.28;4976189;28;20037;-80
2022/09/05 09:13:09;;;;;;;3.30;2.60;;;;;;;20.54;51.98;101894.84;4971688;28;20150;-81
2022/09/05 09:15:55;;;;;;;3.28;2.35;;;;;;;20.95;52.48;101894.84;5005738;28;20713;-81
2022/09/05 09:18:30;;;;;;;2.88;2.30;;;;;;;21.24;52.84;101894.41;4989168;28;20049;-80
2022/09/05 09:21:22;;;;;;;3.95;2.60;;;;;;;21.14;50.33;101893.09;4983930;28;20125;-81
2022/09/05 09:24:31;;;;;;;4.25;2.28;;;;;;;21.14;50.32;101893.09;4992016;28;20053;-80
2022/09/05 09:27:21;;;;;;;2.70;2.22;;;;;;;21.56;51.45;101894.78;4988208;28;20403;-81
2022/09/05 09:30:11;;;;;;;4.60;2.42;;;;;;;21.97;49.21;101902.72;4970289;28;20031;-82
2022/09/05 09:32:48;;;;;;;147.18;23.63;;;;;;;22.01;49.06;101899.78;4969021;28;20070;-81
2022/09/05 09:35:53;;;;;;;3.95;2.47;;;;;;;22.12;47.94;101899.31;4972181;28;20062;-81
2022/09/05 09:38:50;;;;;;;4.70;2.70;;;;;;;22.41;49.33;101890.66;4966215;28;20041;-81
2022/09/05 09:41:32;;;;;;;3.38;2.60;;;;;;;22.46;49.09;101899.38;4988023;28;20046;-83
2022/09/05 09:44:19;;;;;;;3.65;2.40;;;;;;;22.51;49.82;101892.88;4973579;28;20125;-81
2022/09/05 09:46:49;;;;;;;3.50;2.58;;;;;;;22.54;46.48;101890.91;4967714;28;20125;-81
2022/09/05 09:49:35;;;;;;;4.00;2.65;;;;;;;22.79;45.47;101889.66;4974558;28;20034;-81
2022/09/05 09:52:16;;;;;;;3.33;2.45;;;;;;;22.62;46.56;101888.69;4972295;28;20042;-80
2022/09/05 09:55:29;;;;;;;3.55;2.10;;;;;;;22.94;46.23;101895.09;4958102;28;20052;-83
2022/09/05 09:58:13;;;;;;;2.70;2.30;;;;;;;23.09;45.32;101890.75;4972713;28;20046;-85
2022/09/05 10:01:10;;;;;;;3.00;2.33;;;;;;;22.94;45.68;101889.72;4989584;28;20141;-83
2022/09/05 10:04:15;;;;;;;8.65;3.53;;;;;;;22.72;46.61;101884.56;4970981;28;20626;-81
2022/09/05 10:07:34;;;;;;;2.55;2.20;;;;;;;22.51;44.58;101882.09;4962292;28;20057;-82
2022/09/05 10:10:36;;;;;;;4.00;2.33;;;;;;;22.82;47.70;101879.56;4976730;28;20463;-82
2022/09/05 10:14:02;;;;;;;3.03;2.28;;;;;;;22.60;44.98;101879.78;4993855;28;20045;-80
2022/09/05 10:16:40;;;;;;;2.55;2.35;;;;;;;22.56;45.97;101875.53;4972548;28;20049;-82
2022/09/05 10:19:35;;;;;;;3.05;2.40;;;;;;;23.09;44.70;101877.25;4993624;28;20043;-83
2022/09/05 10:22:39;;;;;;;2.72;2.47;;;;;;;22.43;45.39;101877.97;5007977;28;20042;-82
2022/09/05 10:25:31;;;;;;;3.22;2.30;;;;;;;22.64;44.78;101864.38;4978814;28;20044;-82
2022/09/05 10:28:36;;;;;;;4.97;2.42;;;;;;;22.24;44.48;101870.91;4994790;28;20053;-83
2022/09/05 10:31:14;;;;;;;4.43;2.90;;;;;;;22.35;48.26;101864.00;4994149;28;20053;-82
2022/09/05 10:34:12;;;;;;;4.45;2.70;;;;;;;22.56;43.89;101866.59;4994691;28;20053;-81
2022/09/05 10:37:01;;;;;;;3.20;2.25;;;;;;;22.99;44.29;101860.72;4979085;28;20047;-81
2022/09/05 10:39:34;;;;;;;3.33;2.67;;;;;;;22.67;44.28;101861.50;4974968;28;20050;-84
2022/09/05 10:42:09;;;;;;;4.17;2.70;;;;;;;22.70;44.71;101866.72;4977875;28;20125;-84
2022/09/05 10:44:45;;;;;;;3.58;2.70;;;;;;;22.96;43.49;101858.19;4995223;28;20137;-83
2022/09/05 10:47:25;;;;;;;3.47;2.50;;;;;;;22.92;44.65;101845.81;4974374;28;20141;-83
2022/09/05 10:50:19;;;;;;;3.30;2.97;;;;;;;22.71;43.38;101846.94;5005030;28;20079;-83
2022/09/05 10:52:49;;;;;;;3.63;2.88;;;;;;;22.90;45.26;101845.03;4974185;28;20180;-84
2022/09/05 10:55:24;;;;;;;4.47;2.42;;;;;;;22.84;43.63;101844.44;4984464;28;20069;-83
2022/09/05 10:58:23;;;;;;;4.13;2.70;;;;;;;22.84;44.79;101836.38;4983246;28;20198;-83
2022/09/05 11:01:34;;;;;;;3.90;2.60;;;;;;;23.22;44.62;101839.75;4960832;28;20049;-82
2022/09/05 11:04:50;;;;;;;3.20;2.90;;;;;;;23.03;42.59;101827.22;4994522;28;20058;-83
2022/09/05 11:07:42;;;;;;;3.13;2.83;;;;;;;22.84;45.43;101831.84;4978285;28;20092;-84
2022/09/05 11:10:19;;;;;;;3.88;2.90;;;;;;;22.76;43.35;101823.31;4979220;28;20050;-82
2022/09/05 11:13:04;;;;;;;3.08;2.35;;;;;;;23.06;43.25;101819.97;4996199;28;20122;-84
2022/09/05 11:15:45;;;;;;;3.97;2.70;;;;;;;22.63;42.23;101817.69;4962517;28;20057;-84
2022/09/05 11:18:53;;;;;;;3.33;2.90;;;;;;;23.18;42.09;101806.66;4982625;28;20119;-83
2022/09/05 11:21:41;;;;;;;7.47;3.38;;;;;;;23.23;42.12;101814.50;4972677;28;20042;-84
2022/09/05 11:24:30;;;;;;;4.13;3.10;;;;;;;23.34;40.91;101820.19;4975119;28;20034;-83
2022/09/05 11:27:04;;;;;;;4.00;2.72;;;;;;;23.36;42.21;101815.56;4972955;28;20046;-82
2022/09/05 11:29:54;;;;;;;4.22;3.25;;;;;;;23.14;41.21;101801.53;4962348;28;20435;-81
2022/09/05 11:32:42;;;;;;;2.88;2.63;;;;;;;23.33;41.52;101804.97;4959570;28;20042;-83
2022/09/05 11:35:32;;;;;;;4.38;2.65;;;;;;;23.56;41.45;101790.19;4967551;28;20046;-80
2022/09/05 11:38:33;;;;;;;3.30;2.50;;;;;;;23.26;39.56;101804.41;4982130;28;20050;-81
2022/09/05 11:41:59;;;;;;;2.65;2.45;;;;;;;23.66;40.72;101801.34;4982711;28;20031;-80
2022/09/05 11:44:33;;;;;;;2.72;2.47;;;;;;;23.55;39.14;101793.84;5032475;28;20026;-81
2022/09/05 11:47:47;;;;;;;3.70;2.40;;;;;;;24.05;38.97;101799.03;5027648;28;20114;-82
2022/09/05 11:50:50;;;;;;;5.45;2.63;;;;;;;24.45;38.78;101793.09;4995864;28;20057;-81
2022/09/05 11:53:35;;;;;;;3.60;2.58;;;;;;;24.00;39.18;101784.94;4970572;28;20065;-81
2022/09/05 11:56:41;;;;;;;10.95;3.88;;;;;;;23.57;39.00;101783.81;4984482;28;20046;-82
2022/09/05 11:59:45;;;;;;;5.13;2.63;;;;;;;23.96;39.09;101787.88;4977452;28;20042;-81
2022/09/05 12:02:31;;;;;;;3.28;2.63;;;;;;;23.95;37.80;101791.56;4974063;28;20045;-82
2022/09/05 12:05:24;;;;;;;52.03;9.43;;;;;;;24.19;38.10;101778.44;4990978;28;20129;-83
2022/09/05 12:08:36;;;;;;;3.75;2.65;;;;;;;23.82;38.43;101786.00;4991319;28;20043;-82
2022/09/05 12:11:21;;;;;;;3.60;2.78;;;;;;;23.55;38.74;101788.44;4956907;28;20035;-83
2022/09/05 12:14:06;;;;;;;4.03;3.10;;;;;;;23.29;39.76;101780.00;4991989;28;20133;-82
2022/09/05 12:16:54;;;;;;;4.35;2.67;;;;;;;23.59;39.61;101780.09;4990041;28;20047;-81
2022/09/05 12:19:46;;;;;;;3.38;2.70;;;;;;;23.17;40.31;101774.41;4991288;28;20042;-83
2022/09/05 12:22:16;;;;;;;4.03;3.25;;;;;;;23.31;39.17;101779.91;4989869;28;20117;-83
2022/09/05 12:25:11;;;;;;;4.95;3.10;;;;;;;23.57;39.32;101778.44;4974372;28;20458;-83
2022/09/05 12:28:06;;;;;;;5.70;3.95;;;;;;;23.99;40.22;101771.53;4992663;28;20116;-82
2022/09/05 12:31:09;;;;;;;4.60;2.97;;;;;;;24.15;38.80;101767.84;5005933;28;20053;-81
2022/09/05 12:33:55;;;;;;;3.28;2.85;;;;;;;24.18;39.27;101765.91;4971978;28;20057;-82
2022/09/05 12:36:46;;;;;;;3.90;2.58;;;;;;;24.56;38.05;101771.72;4969036;28;20047;-82
2022/09/05 12:39:43;;;;;;;3.22;2.55;;;;;;;24.54;39.23;101757.41;4972053;28;20043;-82
2022/09/05 12:42:51;;;;;;;5.78;2.83;;;;;;;24.91;37.15;101756.00;4975385;28;20089;-82
2022/09/05 12:45:46;;;;;;;4.28;3.03;;;;;;;24.88;36.55;101754.34;4972311;28;20085;-81
2022/09/05 12:48:32;;;;;;;3.45;2.45;;;;;;;24.58;37.87;101742.78;4975449;28;20085;-80
2022/09/05 12:51:10;;;;;;;4.00;2.80;;;;;;;24.66;37.27;101751.28;4993220;28;20034;-82
2022/09/05 12:54:00;;;;;;;7.60;3.00;;;;;;;24.88;37.61;101735.41;4978099;28;20089;-80
2022/09/05 12:56:45;;;;;;;3.15;2.85;;;;;;;24.50;36.01;101745.94;4991515;28;20042;-81
2022/09/05 12:59:34;;;;;;;;;;;;;;;24.18;37.18;101742.47;4962396;28;20122;-80
2022/09/05 13:02:26;;;;;;;3.45;2.70;;;;;;;23.89;37.35;101744.22;4962374;28;19929;-81
2022/09/05 13:05:15;;;;;;;3.80;2.60;;;;;;;24.24;37.41;101747.50;4983700;28;20035;-80